createdAt,value
2023-12-11T00:03:52.741Z,25.13
2023-12-11T00:08:54.696Z,25.50
2023-12-11T00:13:57.325Z,27.73
2023-12-11T00:18:59.443Z,39.72
2023-12-11T00:24:01.577Z,31.55
2023-12-11T00:29:03.594Z,27.35
2023-12-11T00:34:05.624Z,35.40
2023-12-11T00:39:08.210Z,29.13
2023-12-11T00:44:10.231Z,30.58
2023-12-11T00:49:12.367Z,18.05
2023-12-11T00:54:14.444Z,23.42
2023-12-11T00:59:16.401Z,21.92
2023-12-11T01:04:18.508Z,14.65
2023-12-11T01:09:20.456Z,14.02
2023-12-11T01:14:22.632Z,26.58
2023-12-11T01:19:24.688Z,23.83
2023-12-11T01:24:26.905Z,26.20
2023-12-11T01:29:28.925Z,27.13
2023-12-11T01:34:30.939Z,22.17
2023-12-11T01:39:32.949Z,24.75
2023-12-11T01:44:36.943Z,23.98
2023-12-11T01:49:39.997Z,25.52
2023-12-11T01:54:42.772Z,35.03
2023-12-11T01:59:49.125Z,22.52
2023-12-11T02:04:51.632Z,22.73
2023-12-11T02:09:53.879Z,21.30
2023-12-11T02:14:55.805Z,27.48
2023-12-11T02:19:57.775Z,21.45
2023-12-11T02:25:03.575Z,25.23
2023-12-11T02:30:06.282Z,26.98
2023-12-11T02:35:08.260Z,28.83
2023-12-11T02:40:10.463Z,30.25
2023-12-11T02:45:12.549Z,28.17
2023-12-11T02:50:14.551Z,20.98
2023-12-11T02:55:16.555Z,27.17
2023-12-11T03:00:18.629Z,18.63
2023-12-11T03:05:20.917Z,27.40
2023-12-11T03:10:24.450Z,22.85
2023-12-11T03:15:26.541Z,31.02
2023-12-11T03:20:28.571Z,20.67
2023-12-11T03:25:30.500Z,22.33
2023-12-11T03:30:32.493Z,21.27
2023-12-11T03:35:34.478Z,30.08
2023-12-11T03:40:36.459Z,29.23
2023-12-11T03:45:38.675Z,33.90
2023-12-11T03:50:40.688Z,30.55
2023-12-11T03:55:42.706Z,21.38
2023-12-11T04:00:44.888Z,26.45
2023-12-11T04:05:47.818Z,14.25
2023-12-11T04:10:50.002Z,28.10
2023-12-11T04:15:51.915Z,28.98
2023-12-11T04:20:53.874Z,19.70
2023-12-11T04:26:00.272Z,29.05
2023-12-11T04:31:02.406Z,31.55
2023-12-11T04:36:08.901Z,31.13
2023-12-11T04:41:10.809Z,27.92
2023-12-11T04:46:12.779Z,28.63
2023-12-11T04:51:15.047Z,21.70
2023-12-11T04:56:17.458Z,40.03
2023-12-11T05:01:19.517Z,33.45
2023-12-11T05:06:21.552Z,33.33
2023-12-11T05:11:23.669Z,26.50
2023-12-11T05:16:27.760Z,26.73
2023-12-11T05:21:30.089Z,27.83
2023-12-11T05:26:32.014Z,32.83
2023-12-11T05:31:34.423Z,39.20
2023-12-11T05:36:36.726Z,24.45
2023-12-11T05:41:38.903Z,35.13
2023-12-11T05:46:41.016Z,28.65
2023-12-11T05:51:43.338Z,34.13
2023-12-11T05:56:45.402Z,28.85
2023-12-11T06:01:48.907Z,37.53
2023-12-11T06:06:51.007Z,22.63
2023-12-11T06:11:53.018Z,34.88
2023-12-11T06:16:54.952Z,31.15
2023-12-11T06:21:56.879Z,27.80
2023-12-11T06:26:58.875Z,35.20
2023-12-11T06:32:00.766Z,23.38
2023-12-11T06:37:02.872Z,25.60
2023-12-11T06:42:06.709Z,36.78
2023-12-11T06:47:08.855Z,40.42
2023-12-11T06:52:10.967Z,21.10
2023-12-11T06:57:12.980Z,29.10
2023-12-11T07:02:15.048Z,27.30
2023-12-11T07:07:17.026Z,28.52
2023-12-11T07:12:19.316Z,26.92
2023-12-11T07:17:21.232Z,26.98
2023-12-11T07:22:23.392Z,24.27
2023-12-11T07:27:28.600Z,30.17
2023-12-11T07:32:30.710Z,19.13
2023-12-11T07:37:33.289Z,22.35
2023-12-11T07:42:35.358Z,20.10
2023-12-11T07:47:37.499Z,29.88
2023-12-11T07:52:39.555Z,19.60
2023-12-11T07:57:42.400Z,23.25
2023-12-11T08:02:44.526Z,19.48
2023-12-11T08:07:46.588Z,28.30
2023-12-11T08:12:55.167Z,27.02
2023-12-11T08:17:57.215Z,22.75
2023-12-11T08:22:59.333Z,30.40
2023-12-11T08:28:01.347Z,21.50
2023-12-11T08:33:03.361Z,15.80
2023-12-11T08:38:05.385Z,23.38
2023-12-11T08:43:07.902Z,17.63
2023-12-11T08:48:10.268Z,24.17
2023-12-11T08:53:12.220Z,21.02
2023-12-11T08:58:14.293Z,20.13
2023-12-11T09:03:16.331Z,18.52
2023-12-11T09:08:18.315Z,14.45
2023-12-11T09:13:20.355Z,21.98
2023-12-11T09:18:22.436Z,14.38
2023-12-11T09:23:24.510Z,15.35
2023-12-11T09:28:31.484Z,18.60
2023-12-11T09:33:36.334Z,17.13
2023-12-11T09:38:38.764Z,16.88
2023-12-11T09:43:41.134Z,11.10
2023-12-11T09:48:44.439Z,15.90
2023-12-11T09:53:47.630Z,12.45
2023-12-11T09:58:50.717Z,14.93
2023-12-11T10:03:52.660Z,9.75
2023-12-11T10:08:55.190Z,14.15
2023-12-11T10:14:12.222Z,16.08
2023-12-11T10:19:15.352Z,19.33
2023-12-11T10:24:17.382Z,13.32
2023-12-11T10:29:22.900Z,9.73
2023-12-11T10:34:45.417Z,7.10
2023-12-11T10:39:57.341Z,18.25
2023-12-11T10:44:59.335Z,9.48
2023-12-11T10:50:04.135Z,13.27
2023-12-11T10:55:06.512Z,9.95
2023-12-11T11:00:09.239Z,10.45
2023-12-11T11:05:13.376Z,14.30
2023-12-11T11:10:21.822Z,13.68
2023-12-11T11:15:27.032Z,15.68
2023-12-11T11:20:30.942Z,9.18
2023-12-11T11:25:34.465Z,13.02
2023-12-11T11:30:42.813Z,11.57
2023-12-11T11:35:45.181Z,13.98
2023-12-11T11:40:50.115Z,11.35
2023-12-11T11:46:00.899Z,7.95
2023-12-11T11:51:02.852Z,9.27
2023-12-11T11:56:05.214Z,11.10
2023-12-11T12:01:07.651Z,6.72
2023-12-11T12:06:11.074Z,7.00
2023-12-11T12:11:13.272Z,8.38
2023-12-11T12:16:28.611Z,6.38
2023-12-11T12:21:30.607Z,15.15
2023-12-11T12:26:35.078Z,5.90
2023-12-11T12:31:40.973Z,10.73
2023-12-11T12:36:44.080Z,9.05
2023-12-11T12:41:50.924Z,10.02
2023-12-11T12:46:54.509Z,10.50
2023-12-11T12:51:56.729Z,8.23
2023-12-11T12:57:00.320Z,6.57
2023-12-11T13:02:02.498Z,12.02
2023-12-11T13:07:11.904Z,10.85
2023-12-11T13:12:20.216Z,11.95
2023-12-11T13:17:22.184Z,11.15
2023-12-11T13:22:24.160Z,8.52
2023-12-11T13:27:30.458Z,15.05
2023-12-11T13:32:32.571Z,6.75
2023-12-11T13:37:34.837Z,8.65
2023-12-11T13:42:37.512Z,12.27
2023-12-11T13:47:40.200Z,14.25
2023-12-11T13:52:42.258Z,7.88
2023-12-11T13:57:44.278Z,10.30
2023-12-11T14:03:00.536Z,8.00
2023-12-11T14:08:06.806Z,11.10
2023-12-11T14:13:14.045Z,6.13
2023-12-11T14:18:16.374Z,9.05
2023-12-11T14:23:18.287Z,7.07
2023-12-11T14:28:20.378Z,8.55
2023-12-11T14:33:22.294Z,5.50
2023-12-11T14:38:24.277Z,7.57
2023-12-11T14:43:26.956Z,8.05
2023-12-11T14:48:29.091Z,5.05
2023-12-11T14:53:31.106Z,5.40
2023-12-11T14:58:36.347Z,2.90
2023-12-11T15:03:38.476Z,8.68
2023-12-11T15:08:41.222Z,4.07
2023-12-11T15:13:44.170Z,3.85
2023-12-11T15:18:47.941Z,2.70
2023-12-11T15:23:51.184Z,11.65
2023-12-11T15:28:53.102Z,8.88
2023-12-11T15:33:55.059Z,8.27
2023-12-11T15:38:57.133Z,9.95
2023-12-11T15:43:59.002Z,4.72
2023-12-11T15:49:02.075Z,11.23
2023-12-11T15:54:04.223Z,11.05
2023-12-11T15:59:06.157Z,8.77
2023-12-11T16:04:08.632Z,7.85
2023-12-11T16:09:12.258Z,11.05
2023-12-11T16:14:14.880Z,10.88
2023-12-11T16:19:17.016Z,15.52
2023-12-11T16:24:19.369Z,16.67
2023-12-11T16:29:22.467Z,9.05
2023-12-11T16:34:24.873Z,7.82
2023-12-11T16:39:27.203Z,10.90
2023-12-11T16:44:29.148Z,20.90
2023-12-11T16:49:32.621Z,17.58
2023-12-11T16:59:37.797Z,11.48
2023-12-11T17:04:39.733Z,6.80
2023-12-11T17:09:41.737Z,13.20
2023-12-11T17:14:44.117Z,16.77
2023-12-11T17:19:46.182Z,15.30
2023-12-11T17:24:49.608Z,10.77
2023-12-11T17:29:51.653Z,21.88
2023-12-11T17:34:53.807Z,7.30
2023-12-11T17:39:57.454Z,16.65
2023-12-11T17:45:00.340Z,9.43
2023-12-11T17:50:02.342Z,10.80
2023-12-11T17:55:08.273Z,17.05
2023-12-11T18:00:11.783Z,11.07
2023-12-11T18:05:16.113Z,15.82
2023-12-11T18:10:19.405Z,9.45
2023-12-11T18:15:21.331Z,11.30
2023-12-11T18:20:23.262Z,11.13
2023-12-11T18:25:25.256Z,14.98
2023-12-11T18:30:27.285Z,18.73
2023-12-11T18:35:29.632Z,15.95
2023-12-11T18:40:31.753Z,13.68
2023-12-11T18:45:35.014Z,11.75
2023-12-11T18:50:39.820Z,12.77
2023-12-11T19:02:23.243Z,11.13
2023-12-11T19:07:27.796Z,16.50
2023-12-11T19:12:30.448Z,17.80
2023-12-11T19:17:35.761Z,16.38
2023-12-11T19:27:46.774Z,20.70
2023-12-11T19:32:49.455Z,16.83
2023-12-11T19:38:28.035Z,13.77
2023-12-11T19:43:30.793Z,13.43
2023-12-11T19:48:33.454Z,12.40
2023-12-11T19:53:35.860Z,12.77
2023-12-11T19:58:37.872Z,14.82
2023-12-11T20:03:45.578Z,9.88
2023-12-11T20:08:47.772Z,13.25
2023-12-11T20:13:52.699Z,16.30
2023-12-11T20:23:57.253Z,9.15
2023-12-11T20:28:59.959Z,10.13
2023-12-11T20:34:02.176Z,9.05
2023-12-11T20:39:04.864Z,7.50
2023-12-11T20:44:07.158Z,14.73
2023-12-11T20:49:09.592Z,11.07
2023-12-11T20:54:12.200Z,16.88
2023-12-11T20:59:16.545Z,9.70
2023-12-11T21:04:19.668Z,13.90
2023-12-11T21:09:21.738Z,12.02
2023-12-11T21:14:23.808Z,13.13
2023-12-11T21:19:44.098Z,14.88
2023-12-11T21:24:46.494Z,15.82
2023-12-11T21:29:48.584Z,19.60
2023-12-11T21:34:51.074Z,16.52
2023-12-11T21:39:54.290Z,26.38
2023-12-11T21:44:56.714Z,20.33
2023-12-11T21:49:58.755Z,18.95
2023-12-11T21:55:00.957Z,20.77
2023-12-11T22:00:03.079Z,23.80
2023-12-11T22:05:13.984Z,14.80
2023-12-11T22:10:16.175Z,15.85
2023-12-11T22:15:18.274Z,13.35
2023-12-11T22:20:20.378Z,17.55
2023-12-11T22:25:22.831Z,14.55
2023-12-11T22:30:25.788Z,13.30
2023-12-11T22:35:28.886Z,11.68
2023-12-11T22:40:30.937Z,14.63
2023-12-11T22:45:33.406Z,10.82
2023-12-11T22:50:35.802Z,14.13
2023-12-11T22:55:38.140Z,9.48
2023-12-11T23:00:40.164Z,15.13
2023-12-11T23:05:42.148Z,14.10
2023-12-11T23:10:45.628Z,12.65
2023-12-11T23:15:51.435Z,9.00
2023-12-11T23:20:53.535Z,12.88
2023-12-11T23:26:01.443Z,11.02
2023-12-11T23:31:07.271Z,17.92
2023-12-11T23:36:10.199Z,7.85
2023-12-11T23:41:12.331Z,4.85
2023-12-11T23:46:14.337Z,8.95
2023-12-11T23:51:16.518Z,10.27
2023-12-11T23:56:18.504Z,9.77
